Bolan, Iowa
Current Conditions -  °F | °C
As of 7:53 AM on Saturday 22 Nov 2014 (Local Time) from KMCW Reporting Station
Moderate Fog Moderate Fog  
Wind Chill: 27°   Ceiling: 200
Heat Index: 34°   Visibility: 0.25mi
Dew Point: 34°   Wind: 9mph
Humidity: 100%   Direction: 180°S
Pressure: 29.84"   Gusts: NA
Location:  43.3847°N, 93.1428°W
Report Text: KMCW 221353Z AUTO 18008KT 1/4SM FG VV002 01/01 A2984 RMK AO2 SLP111 T00110011
Loading
Personal Weather Stations






























Interactive Weather Map New forecast layout! Learn more

10-Day Weather Forecast

Advertisements
Track Severe Weather on mobile